Bei Facebook empfehlenBei Twitter postenGoogle plusPinterest

Das Wetter im Erzgebirge am 08.10.2015

Wetter und Klima am 08.10.2015 Holzhau im Erzgebirge (630m ü.NN)
Letzte gemessene Temperatur und Uhrzeit der Messung23:45:00 Uhr9.80 °C
Temperatur (Maximum / Höchstwert) und Uhrzeit der Messung01:45:00 Uhr11.80 °C
Temperatur (Minimum / Tiefstwert) und Uhrzeit der Messung23:45:009.80 °C
Errechneter Absolutwert der Temperaturschwankungen zwischen Tmin und Tmax des Tages2.00 K
Errechnete Tagesmitteltemperatur10.83125 °C
Gesamt - Niederschlag des Tages (in flüssiger Form)8.80 Liter / m²
Luftdruck (Maximum / Höchstwert) und Zeitpunkt der Messung23:30:00 Uhr1017.10 hPa
Luftdruck (Minimum / Tiefstwert) und Zeitpunkt der Messung06:45:00 Uhr1012.30 hPa
Errechneter Absolutwert der Luftdruckschwankungen des Tages4.80 hPa
Höchste gemessene Windgeschwindigkeit und Uhrzeit der Messung10:45:00 Uhr6.84 km/h
Errechnete Windhäufigkeit in Relation zu den Messwerten des Tages7.29167 %
Niedrigste Windkühle (Windchill) und Zeitpunkt der Messung23:45:00 Uhr9.80 °C
Taupunkt (Maximum / Höchstwert) und Uhrzeit der Messung12:00:00 Uhr11.10 °C
Taupunkt (Minimum / Tiefstwert) und Uhrzeit der Messung23:45:009.20 °C
Anzahl der automatisch eingelesenen Messwerte 96

Detaillierte Wetter- und Klima- Messwerte für den 08.10.2015 in Holzhau im Erzgebirge (630m ü.NN)
ZeitTemperaturLuftdruckRel. LuftfeuchteWindWindrichtungWindchillTaupunktNiederschlag l/m²
23:45:009.80 °C1017.00 hPa96.00 %9.20 °C8.80
23:30:009.80 °C1017.10 hPa96.00 %9.20 °C8.80
23:15:009.80 °C1017.10 hPa96.00 %9.20 °C8.80
23:00:009.80 °C1017.00 hPa96.00 %9.20 °C8.80
22:45:009.80 °C1017.00 hPa96.00 %9.20 °C8.80
22:30:009.90 °C1017.00 hPa96.00 %9.30 °C8.80
22:15:009.90 °C1017.00 hPa96.00 %9.30 °C8.80
22:00:009.90 °C1017.00 hPa96.00 %9.30 °C8.80
21:45:009.90 °C1016.80 hPa96.00 %9.30 °C8.29
21:30:009.90 °C1016.80 hPa96.00 %9.30 °C8.29
21:15:009.90 °C1016.90 hPa96.00 %9.30 °C8.29
21:00:009.90 °C1017.00 hPa96.00 %9.30 °C8.29
20:45:009.90 °C1016.90 hPa96.00 %9.30 °C8.29
20:30:0010.00 °C1016.90 hPa96.00 %9.40 °C8.29
20:15:0010.00 °C1016.80 hPa96.00 %9.40 °C8.29
20:00:0010.00 °C1016.80 hPa96.00 %9.40 °C8.29
19:45:0010.10 °C1016.70 hPa96.00 %9.50 °C8.29
19:30:0010.10 °C1016.80 hPa96.00 %9.50 °C8.29
19:15:0010.10 °C1016.80 hPa96.00 %9.50 °C8.29
19:00:0010.10 °C1016.70 hPa96.00 %9.50 °C8.29
18:45:0010.20 °C1016.70 hPa96.00 %9.60 °C8.29
18:30:0010.20 °C1016.40 hPa96.00 %9.60 °C8.29
18:15:0010.30 °C1016.50 hPa96.00 %9.70 °C8.29
18:00:0010.30 °C1016.60 hPa96.00 %9.70 °C8.29
17:45:0010.30 °C1016.40 hPa96.00 %9.70 °C8.29
17:30:0010.40 °C1016.40 hPa96.00 %9.80 °C8.29
17:15:0010.40 °C1016.10 hPa96.00 %9.80 °C8.29
17:00:0010.60 °C1016.10 hPa96.00 %10.00 °C8.29
16:45:0010.60 °C1015.90 hPa96.00 %10.00 °C8.29
16:30:0010.60 °C1016.00 hPa96.00 %10.00 °C8.29
16:15:0010.60 °C1015.80 hPa96.00 %10.00 °C7.77
16:00:0010.60 °C1015.70 hPa96.00 %4.68 km/hWNW10.60 °C10.00 °C7.77
15:45:0010.60 °C1015.70 hPa96.00 %10.00 °C7.77
15:30:0010.80 °C1015.80 hPa96.00 %10.20 °C7.77
15:15:0010.80 °C1015.70 hPa96.00 %10.20 °C7.77
15:00:0010.80 °C1015.60 hPa96.00 %10.20 °C7.77
14:45:0010.90 °C1015.60 hPa96.00 %10.30 °C7.77
14:30:0010.90 °C1015.40 hPa96.00 %10.30 °C7.77
14:15:0010.90 °C1015.30 hPa96.00 %10.30 °C7.77
14:00:0010.90 °C1015.30 hPa96.00 %10.30 °C7.77
13:45:0010.90 °C1015.30 hPa96.00 %10.30 °C7.25
13:30:0011.10 °C1015.10 hPa96.00 %10.50 °C7.25
13:15:0011.10 °C1015.10 hPa96.00 %10.50 °C6.73
13:00:0011.30 °C1014.90 hPa96.00 %10.70 °C6.73
12:45:0011.40 °C1014.90 hPa96.00 %10.80 °C6.73
12:30:0011.40 °C1014.80 hPa96.00 %10.80 °C6.21
12:15:0011.60 °C1014.40 hPa96.00 %1.80 km/hNW11.60 °C11.00 °C6.21
12:00:0011.70 °C1014.20 hPa96.00 %11.10 °C6.21
11:45:0011.70 °C1014.00 hPa96.00 %11.10 °C5.70
11:30:0011.60 °C1013.90 hPa96.00 %11.00 °C5.70
11:15:0011.60 °C1013.60 hPa96.00 %11.00 °C5.18
11:00:0011.50 °C1013.60 hPa96.00 %10.90 °C5.18
10:45:0011.40 °C1013.80 hPa96.00 %6.84 km/hW10.90 °C10.80 °C4.66
10:30:0011.40 °C1013.70 hPa96.00 %10.80 °C4.66
10:15:0011.20 °C1013.60 hPa96.00 %10.60 °C4.14
10:00:0011.30 °C1013.50 hPa96.00 %10.70 °C4.14
09:45:0011.10 °C1013.40 hPa96.00 %4.32 km/hWNW11.10 °C10.50 °C4.14
09:30:0010.90 °C1013.40 hPa96.00 %10.30 °C3.62
09:15:0010.90 °C1013.20 hPa96.00 %10.30 °C3.62
09:00:0010.90 °C1013.20 hPa96.00 %10.30 °C3.11
08:45:0010.90 °C1013.00 hPa96.00 %10.30 °C3.11
08:30:0010.90 °C1012.90 hPa96.00 %10.30 °C3.11
08:15:0010.90 °C1012.60 hPa96.00 %10.30 °C3.11
08:00:0010.90 °C1012.60 hPa96.00 %10.30 °C3.11
07:45:0010.80 °C1012.70 hPa96.00 %10.20 °C2.59
07:30:0010.80 °C1012.50 hPa96.00 %10.20 °C2.59
07:15:0010.90 °C1012.50 hPa96.00 %10.30 °C2.59
07:00:0010.90 °C1012.40 hPa95.00 %2.88 km/hWNW10.90 °C10.10 °C2.07
06:45:0010.90 °C1012.30 hPa95.00 %10.10 °C2.07
06:30:0010.90 °C1012.40 hPa95.00 %10.10 °C2.07
06:15:0010.90 °C1012.30 hPa95.00 %10.10 °C2.07
06:00:0010.90 °C1012.30 hPa95.00 %10.10 °C2.07
05:45:0010.90 °C1012.40 hPa95.00 %10.10 °C2.07
05:30:0010.90 °C1012.30 hPa95.00 %10.10 °C2.07
05:15:0010.90 °C1012.40 hPa95.00 %10.10 °C2.07
05:00:0010.90 °C1012.40 hPa95.00 %10.10 °C2.07
04:45:0010.90 °C1012.30 hPa95.00 %10.10 °C1.55
04:30:0010.90 °C1012.30 hPa95.00 %10.10 °C1.55
04:15:0010.90 °C1012.30 hPa95.00 %10.10 °C1.55
04:00:0011.00 °C1012.50 hPa95.00 %10.20 °C1.03
03:45:0011.10 °C1012.40 hPa95.00 %10.30 °C1.03
03:30:0011.10 °C1012.50 hPa95.00 %10.30 °C1.03
03:15:0011.20 °C1012.70 hPa96.00 %2.88 km/hW11.20 °C10.60 °C0.52
03:00:0011.30 °C1012.50 hPa96.00 %10.70 °C0.52
02:45:0011.60 °C1012.50 hPa96.00 %4.68 km/hN11.60 °C11.00 °C0.52
02:30:0011.60 °C1012.50 hPa95.00 %10.80 °C0.52
02:15:0011.60 °C1012.50 hPa95.00 %10.80 °C0.52
02:00:0011.70 °C1012.40 hPa95.00 %10.90 °C0.52
01:45:0011.80 °C1012.50 hPa95.00 %11.00 °C0.52
01:30:0011.80 °C1012.40 hPa95.00 %11.00 °C 
01:15:0011.80 °C1012.40 hPa95.00 %11.00 °C 
01:00:0011.80 °C1012.50 hPa95.00 %11.00 °C 
00:45:0011.80 °C1012.40 hPa95.00 %11.00 °C 
00:30:0011.80 °C1012.40 hPa95.00 %11.00 °C 
00:15:0011.80 °C1012.30 hPa95.00 %11.00 °C 
00:00:0011.80 °C1012.40 hPa95.00 %11.00 °C 

Permanenter Link zu dieser Seite: Wetter im Erzgebirge am 08.10.2015
Performance-Info: Die Erstellung der Seite / Statistik(en) / Tabelle(n) erforderte 5 Datenbankserver-Abfrage(n) und dauerte 96 Millisekunden. (Dieser Messwert ist von der Gesamt-Auslastung des Servers abhängig.)
Erzgebirge - Wetter | Erzgebirge - Wetter (Mobilgeräte) | Komplette Klimadatenbank